sensor_id;sensor_type;location;lat;lon;timestamp;pressure;altitude;pressure_sealevel;temperature;humidity
40940;BME280;26666;50.156;7.700;2022-08-21T00:01:57;100620.28;;;16.21;66.14
40940;BME280;26666;50.156;7.700;2022-08-21T00:06:59;100615.16;;;16.27;65.85
40940;BME280;26666;50.156;7.700;2022-08-21T00:12:00;100619.56;;;16.61;65.05
40940;BME280;26666;50.156;7.700;2022-08-21T00:17:04;100620.16;;;16.30;65.97
40940;BME280;26666;50.156;7.700;2022-08-21T00:22:05;100616.47;;;15.81;67.33
40940;BME280;26666;50.156;7.700;2022-08-21T00:27:07;100616.38;;;15.99;67.07
40940;BME280;26666;50.156;7.700;2022-08-21T00:32:08;100613.22;;;16.03;66.33
40940;BME280;26666;50.156;7.700;2022-08-21T00:37:10;100614.78;;;16.14;66.03
40940;BME280;26666;50.156;7.700;2022-08-21T00:42:12;100615.41;;;16.08;65.79
40940;BME280;26666;50.156;7.700;2022-08-21T00:47:14;100614.31;;;15.84;66.85
40940;BME280;26666;50.156;7.700;2022-08-21T00:52:20;100608.53;;;15.97;66.46
40940;BME280;26666;50.156;7.700;2022-08-21T00:57:42;100607.94;;;15.77;67.43
40940;BME280;26666;50.156;7.700;2022-08-21T01:02:46;100612.63;;;15.83;67.77
40940;BME280;26666;50.156;7.700;2022-08-21T01:07:47;100621.72;;;16.07;67.37
40940;BME280;26666;50.156;7.700;2022-08-21T01:12:51;100598.97;;;15.78;67.77
40940;BME280;26666;50.156;7.700;2022-08-21T01:17:53;100609.09;;;15.48;67.80
40940;BME280;26666;50.156;7.700;2022-08-21T01:22:55;100612.09;;;15.01;70.32
40940;BME280;26666;50.156;7.700;2022-08-21T01:27:59;100614.72;;;15.19;69.89
40940;BME280;26666;50.156;7.700;2022-08-21T01:33:02;100609.81;;;15.06;70.59
40940;BME280;26666;50.156;7.700;2022-08-21T01:38:04;100612.16;;;14.91;71.42
40940;BME280;26666;50.156;7.700;2022-08-21T01:43:05;100612.09;;;15.01;70.93
40940;BME280;26666;50.156;7.700;2022-08-21T01:48:07;100613.72;;;15.20;70.86
40940;BME280;26666;50.156;7.700;2022-08-21T01:53:09;100605.22;;;15.16;71.01
40940;BME280;26666;50.156;7.700;2022-08-21T01:58:10;100604.03;;;14.93;71.83
40940;BME280;26666;50.156;7.700;2022-08-21T02:03:12;100602.59;;;14.98;72.11
40940;BME280;26666;50.156;7.700;2022-08-21T02:08:28;100600.53;;;15.10;71.44
40940;BME280;26666;50.156;7.700;2022-08-21T02:13:29;100598.19;;;14.89;71.66
40940;BME280;26666;50.156;7.700;2022-08-21T02:18:31;100592.13;;;14.79;72.72
40940;BME280;26666;50.156;7.700;2022-08-21T02:23:33;100597.44;;;14.79;72.58
40940;BME280;26666;50.156;7.700;2022-08-21T02:28:36;100590.22;;;14.71;72.40
40940;BME280;26666;50.156;7.700;2022-08-21T02:33:38;100587.94;;;14.58;73.42
40940;BME280;26666;50.156;7.700;2022-08-21T02:38:41;100582.06;;;14.91;72.77
40940;BME280;26666;50.156;7.700;2022-08-21T02:43:43;100581.97;;;14.47;74.42
40940;BME280;26666;50.156;7.700;2022-08-21T02:48:45;100590.22;;;14.44;74.36
40940;BME280;26666;50.156;7.700;2022-08-21T02:53:47;100587.34;;;14.37;74.97
40940;BME280;26666;50.156;7.700;2022-08-21T02:58:50;100587.19;;;14.20;75.92
40940;BME280;26666;50.156;7.700;2022-08-21T03:03:54;100584.44;;;14.58;75.06
40940;BME280;26666;50.156;7.700;2022-08-21T03:08:55;100581.56;;;14.24;76.63
40940;BME280;26666;50.156;7.700;2022-08-21T03:13:57;100582.50;;;14.32;76.01
40940;BME280;26666;50.156;7.700;2022-08-21T03:18:59;100575.56;;;14.22;76.50
40940;BME280;26666;50.156;7.700;2022-08-21T03:24:00;100577.25;;;14.23;76.70
40940;BME280;26666;50.156;7.700;2022-08-21T03:29:04;100575.97;;;13.99;78.23
40940;BME280;26666;50.156;7.700;2022-08-21T03:34:06;100579.34;;;14.19;77.58
40940;BME280;26666;50.156;7.700;2022-08-21T03:39:08;100570.72;;;14.53;76.45
40940;BME280;26666;50.156;7.700;2022-08-21T03:44:10;100575.31;;;14.61;75.79
40940;BME280;26666;50.156;7.700;2022-08-21T03:49:11;100578.91;;;14.24;76.91
40940;BME280;26666;50.156;7.700;2022-08-21T03:54:13;100583.59;;;13.84;78.27
40940;BME280;26666;50.156;7.700;2022-08-21T03:59:14;100588.31;;;14.18;76.39
40940;BME280;26666;50.156;7.700;2022-08-21T04:04:16;100594.91;;;13.86;78.15
40940;BME280;26666;50.156;7.700;2022-08-21T04:09:18;100606.81;;;13.82;79.77
40940;BME280;26666;50.156;7.700;2022-08-21T04:14:20;100610.47;;;14.09;78.86
40940;BME280;26666;50.156;7.700;2022-08-21T04:19:22;100613.28;;;13.70;80.16
40940;BME280;26666;50.156;7.700;2022-08-21T04:24:23;100625.56;;;13.71;80.48
40940;BME280;26666;50.156;7.700;2022-08-21T04:29:30;100616.25;;;13.57;82.02
40940;BME280;26666;50.156;7.700;2022-08-21T04:34:31;100622.19;;;13.78;80.19
40940;BME280;26666;50.156;7.700;2022-08-21T04:39:33;100633.03;;;13.95;80.10
40940;BME280;26666;50.156;7.700;2022-08-21T04:44:34;100632.72;;;13.70;81.77
40940;BME280;26666;50.156;7.700;2022-08-21T04:49:36;100627.19;;;14.19;79.99
40940;BME280;26666;50.156;7.700;2022-08-21T04:54:37;100623.03;;;14.07;80.99
40940;BME280;26666;50.156;7.700;2022-08-21T04:59:47;100636.44;;;14.43;79.33
40940;BME280;26666;50.156;7.700;2022-08-21T05:04:52;100641.47;;;14.46;79.50
40940;BME280;26666;50.156;7.700;2022-08-21T05:09:56;100637.00;;;14.64;78.49
40940;BME280;26666;50.156;7.700;2022-08-21T05:14:58;100642.81;;;14.77;78.69
40940;BME280;26666;50.156;7.700;2022-08-21T05:20:00;100643.19;;;15.01;77.49
40940;BME280;26666;50.156;7.700;2022-08-21T05:25:02;100643.81;;;15.65;75.21
40940;BME280;26666;50.156;7.700;2022-08-21T05:30:11;100648.06;;;16.61;71.29
40940;BME280;26666;50.156;7.700;2022-08-21T05:35:12;100645.75;;;17.81;67.94
40940;BME280;26666;50.156;7.700;2022-08-21T05:40:14;100654.97;;;19.11;63.53
40940;BME280;26666;50.156;7.700;2022-08-21T05:45:33;100652.31;;;22.10;54.91
40940;BME280;26666;50.156;7.700;2022-08-21T05:50:45;100643.09;;;22.25;53.30
40940;BME280;26666;50.156;7.700;2022-08-21T05:55:47;100648.19;;;22.55;52.56
40940;BME280;26666;50.156;7.700;2022-08-21T06:00:50;100644.56;;;26.78;44.66
40940;BME280;26666;50.156;7.700;2022-08-21T06:05:53;100629.22;;;28.25;40.14
40940;BME280;26666;50.156;7.700;2022-08-21T06:10:57;100627.50;;;29.83;37.49
40940;BME280;26666;50.156;7.700;2022-08-21T06:16:15;100621.31;;;30.92;35.62
40940;BME280;26666;50.156;7.700;2022-08-21T06:21:17;100619.03;;;32.16;33.71
40940;BME280;26666;50.156;7.700;2022-08-21T06:26:19;100607.88;;;31.17;33.49
40940;BME280;26666;50.156;7.700;2022-08-21T06:31:23;100607.56;;;32.09;33.19
40940;BME280;26666;50.156;7.700;2022-08-21T06:36:25;100603.44;;;31.11;33.69
40940;BME280;26666;50.156;7.700;2022-08-21T06:41:26;100605.19;;;35.49;29.25
40940;BME280;26666;50.156;7.700;2022-08-21T06:46:29;100614.50;;;35.29;28.41
40940;BME280;26666;50.156;7.700;2022-08-21T06:51:31;100610.78;;;34.85;29.36
40940;BME280;26666;50.156;7.700;2022-08-21T06:56:32;100603.28;;;32.54;32.42
40940;BME280;26666;50.156;7.700;2022-08-21T07:01:34;100599.47;;;33.22;31.61
40940;BME280;26666;50.156;7.700;2022-08-21T07:06:36;100597.22;;;37.04;27.40
40940;BME280;26666;50.156;7.700;2022-08-21T07:11:37;100597.78;;;37.90;26.02
40940;BME280;26666;50.156;7.700;2022-08-21T07:16:48;100598.75;;;36.45;27.72
40940;BME280;26666;50.156;7.700;2022-08-21T07:21:51;100596.16;;;34.16;30.14
40940;BME280;26666;50.156;7.700;2022-08-21T07:26:53;100582.63;;;33.75;30.48
40940;BME280;26666;50.156;7.700;2022-08-21T07:31:55;100575.31;;;38.10;25.69
40940;BME280;26666;50.156;7.700;2022-08-21T07:36:57;100576.06;;;38.92;24.74
40940;BME280;26666;50.156;7.700;2022-08-21T07:41:59;100569.84;;;37.41;26.03
40940;BME280;26666;50.156;7.700;2022-08-21T07:47:03;100563.31;;;36.24;26.91
40940;BME280;26666;50.156;7.700;2022-08-21T07:52:05;100560.56;;;37.37;25.60
40940;BME280;26666;50.156;7.700;2022-08-21T07:57:06;100545.91;;;37.92;25.60
40940;BME280;26666;50.156;7.700;2022-08-21T08:02:08;100554.06;;;39.67;24.10
40940;BME280;26666;50.156;7.700;2022-08-21T08:07:09;100545.03;;;41.69;22.41
40940;BME280;26666;50.156;7.700;2022-08-21T08:12:11;100538.19;;;37.52;25.90
40940;BME280;26666;50.156;7.700;2022-08-21T08:17:13;100535.31;;;37.85;25.90
40940;BME280;26666;50.156;7.700;2022-08-21T08:22:18;100529.44;;;37.36;26.20
40940;BME280;26666;50.156;7.700;2022-08-21T08:27:20;100532.44;;;34.64;29.37
40940;BME280;26666;50.156;7.700;2022-08-21T08:32:22;100524.03;;;31.08;34.87
40940;BME280;26666;50.156;7.700;2022-08-21T08:37:24;100524.38;;;31.21;34.57
40940;BME280;26666;50.156;7.700;2022-08-21T08:42:33;100523.75;;;30.12;35.44
40940;BME280;26666;50.156;7.700;2022-08-21T08:47:38;100516.28;;;29.14;36.27
40940;BME280;26666;50.156;7.700;2022-08-21T08:52:45;100507.16;;;28.86;37.50
40940;BME280;26666;50.156;7.700;2022-08-21T08:57:49;100507.59;;;29.56;37.29
40940;BME280;26666;50.156;7.700;2022-08-21T09:02:55;100507.81;;;28.77;38.07
40940;BME280;26666;50.156;7.700;2022-08-21T09:29:04;100475.81;;;28.33;37.66
40940;BME280;26666;50.156;7.700;2022-08-21T09:34:10;100477.97;;;28.31;37.76
40940;BME280;26666;50.156;7.700;2022-08-21T09:39:22;100480.31;;;27.82;38.69
40940;BME280;26666;50.156;7.700;2022-08-21T09:44:27;100477.59;;;27.53;39.10
40940;BME280;26666;50.156;7.700;2022-08-21T09:49:35;100471.34;;;27.52;39.17
40940;BME280;26666;50.156;7.700;2022-08-21T09:54:39;100472.22;;;27.70;38.60
40940;BME280;26666;50.156;7.700;2022-08-21T09:59:42;100459.75;;;27.28;39.05
40940;BME280;26666;50.156;7.700;2022-08-21T10:04:50;100443.19;;;27.42;39.22
40940;BME280;26666;50.156;7.700;2022-08-21T10:10:14;100444.44;;;26.87;38.79
40940;BME280;26666;50.156;7.700;2022-08-21T10:15:50;100439.66;;;27.29;38.86
40940;BME280;26666;50.156;7.700;2022-08-21T10:42:21;100412.63;;;27.75;36.64
40940;BME280;26666;50.156;7.700;2022-08-21T10:47:40;100414.75;;;27.44;35.96
40940;BME280;26666;50.156;7.700;2022-08-21T10:53:07;100401.69;;;27.29;36.51
40940;BME280;26666;50.156;7.700;2022-08-21T10:58:26;100406.53;;;27.27;36.23
40940;BME280;26666;50.156;7.700;2022-08-21T11:03:39;100401.00;;;27.34;36.48
40940;BME280;26666;50.156;7.700;2022-08-21T11:08:45;100395.69;;;27.27;36.41
40940;BME280;26666;50.156;7.700;2022-08-21T11:14:01;100395.69;;;27.27;36.73
40940;BME280;26666;50.156;7.700;2022-08-21T11:19:35;100377.38;;;27.34;37.37
40940;BME280;26666;50.156;7.700;2022-08-21T11:30:07;100382.47;;;27.31;35.88
40940;BME280;26666;50.156;7.700;2022-08-21T11:46:25;100375.00;;;26.98;36.32
40940;BME280;26666;50.156;7.700;2022-08-21T11:56:47;100363.09;;;26.87;35.95
40940;BME280;26666;50.156;7.700;2022-08-21T12:01:52;100362.66;;;26.78;35.52
40940;BME280;26666;50.156;7.700;2022-08-21T12:06:54;100361.31;;;26.92;35.51
40940;BME280;26666;50.156;7.700;2022-08-21T12:12:05;100356.72;;;27.05;35.46
40940;BME280;26666;50.156;7.700;2022-08-21T12:17:16;100369.00;;;26.95;35.77
40940;BME280;26666;50.156;7.700;2022-08-21T12:22:20;100369.69;;;26.91;35.96
40940;BME280;26666;50.156;7.700;2022-08-21T12:27:41;100365.53;;;27.00;34.82
40940;BME280;26666;50.156;7.700;2022-08-21T12:32:53;100361.41;;;27.09;34.89
40940;BME280;26666;50.156;7.700;2022-08-21T12:38:23;100354.47;;;27.02;34.09
40940;BME280;26666;50.156;7.700;2022-08-21T12:43:37;100347.31;;;26.95;34.31
40940;BME280;26666;50.156;7.700;2022-08-21T12:48:47;100344.25;;;26.92;34.18
40940;BME280;26666;50.156;7.700;2022-08-21T12:53:55;100338.75;;;26.63;35.05
40940;BME280;26666;50.156;7.700;2022-08-21T12:59:05;100331.44;;;26.75;34.69
40940;BME280;26666;50.156;7.700;2022-08-21T13:04:11;100326.28;;;26.50;35.43
40940;BME280;26666;50.156;7.700;2022-08-21T13:09:18;100319.31;;;26.66;35.19
40940;BME280;26666;50.156;7.700;2022-08-21T13:19:29;100314.84;;;26.60;35.49
40940;BME280;26666;50.156;7.700;2022-08-21T13:24:35;100307.03;;;26.52;34.77
40940;BME280;26666;50.156;7.700;2022-08-21T13:29:45;100305.63;;;26.49;34.95
40940;BME280;26666;50.156;7.700;2022-08-21T13:34:54;100303.06;;;26.54;34.73
40940;BME280;26666;50.156;7.700;2022-08-21T13:39:56;100302.00;;;26.44;34.82
40940;BME280;26666;50.156;7.700;2022-08-21T13:44:57;100297.28;;;26.63;35.03
40940;BME280;26666;50.156;7.700;2022-08-21T13:49:59;100296.44;;;26.74;35.56
40940;BME280;26666;50.156;7.700;2022-08-21T13:55:12;100300.59;;;26.65;35.07
40940;BME280;26666;50.156;7.700;2022-08-21T14:00:20;100287.84;;;26.65;35.46
40940;BME280;26666;50.156;7.700;2022-08-21T14:05:29;100282.56;;;26.59;35.17
40940;BME280;26666;50.156;7.700;2022-08-21T14:10:35;100283.16;;;26.61;35.43
40940;BME280;26666;50.156;7.700;2022-08-21T14:15:37;100269.38;;;26.50;36.13
40940;BME280;26666;50.156;7.700;2022-08-21T14:20:39;100268.91;;;26.30;35.56
40940;BME280;26666;50.156;7.700;2022-08-21T14:25:43;100265.03;;;26.38;34.80
40940;BME280;26666;50.156;7.700;2022-08-21T14:30:45;100263.25;;;26.43;33.80
40940;BME280;26666;50.156;7.700;2022-08-21T14:35:47;100255.41;;;26.18;35.83
40940;BME280;26666;50.156;7.700;2022-08-21T14:40:51;100256.91;;;26.38;33.62
40940;BME280;26666;50.156;7.700;2022-08-21T14:45:54;100256.44;;;26.29;32.87
40940;BME280;26666;50.156;7.700;2022-08-21T14:50:55;100249.72;;;26.43;33.41
40940;BME280;26666;50.156;7.700;2022-08-21T14:56:01;100254.31;;;26.43;33.06
40940;BME280;26666;50.156;7.700;2022-08-21T15:01:04;100256.88;;;26.49;33.48
40940;BME280;26666;50.156;7.700;2022-08-21T15:06:07;100257.25;;;26.41;32.17
40940;BME280;26666;50.156;7.700;2022-08-21T15:11:13;100249.97;;;26.18;34.36
40940;BME280;26666;50.156;7.700;2022-08-21T15:16:39;100253.28;;;26.20;34.14
40940;BME280;26666;50.156;7.700;2022-08-21T15:21:40;100251.03;;;25.93;34.79
40940;BME280;26666;50.156;7.700;2022-08-21T15:26:42;100252.44;;;25.84;35.78
40940;BME280;26666;50.156;7.700;2022-08-21T15:37:19;100245.34;;;25.71;37.22
40940;BME280;26666;50.156;7.700;2022-08-21T15:42:21;100242.28;;;25.80;35.12
40940;BME280;26666;50.156;7.700;2022-08-21T15:47:29;100246.97;;;25.49;37.85
40940;BME280;26666;50.156;7.700;2022-08-21T15:52:31;100239.38;;;25.27;38.49
40940;BME280;26666;50.156;7.700;2022-08-21T15:57:34;100240.50;;;25.19;38.80
40940;BME280;26666;50.156;7.700;2022-08-21T16:02:36;100236.13;;;25.07;38.91
40940;BME280;26666;50.156;7.700;2022-08-21T16:07:39;100227.91;;;25.32;36.92
40940;BME280;26666;50.156;7.700;2022-08-21T16:12:50;100224.34;;;25.01;38.66
40940;BME280;26666;50.156;7.700;2022-08-21T16:17:53;100231.59;;;24.89;40.32
40940;BME280;26666;50.156;7.700;2022-08-21T16:22:56;100226.16;;;24.77;40.46
40940;BME280;26666;50.156;7.700;2022-08-21T16:27:59;100229.53;;;24.72;40.41
40940;BME280;26666;50.156;7.700;2022-08-21T16:33:03;100225.63;;;24.68;41.24
40940;BME280;26666;50.156;7.700;2022-08-21T16:38:05;100225.25;;;24.65;41.72
40940;BME280;26666;50.156;7.700;2022-08-21T16:43:07;100213.25;;;24.60;41.32
40940;BME280;26666;50.156;7.700;2022-08-21T16:48:09;100209.50;;;24.62;41.69
40940;BME280;26666;50.156;7.700;2022-08-21T16:53:11;100208.66;;;24.61;40.37
40940;BME280;26666;50.156;7.700;2022-08-21T16:58:39;100209.56;;;24.73;39.79
40940;BME280;26666;50.156;7.700;2022-08-21T17:03:43;100211.97;;;24.63;40.44
40940;BME280;26666;50.156;7.700;2022-08-21T17:08:45;100208.28;;;24.57;41.62
40940;BME280;26666;50.156;7.700;2022-08-21T17:13:54;100207.25;;;24.58;41.24
40940;BME280;26666;50.156;7.700;2022-08-21T17:18:56;100204.19;;;24.55;41.35
40940;BME280;26666;50.156;7.700;2022-08-21T17:23:59;100198.84;;;24.67;40.43
40940;BME280;26666;50.156;7.700;2022-08-21T17:29:00;100199.16;;;24.58;41.39
40940;BME280;26666;50.156;7.700;2022-08-21T17:34:02;100198.47;;;24.45;41.48
40940;BME280;26666;50.156;7.700;2022-08-21T17:39:04;100201.31;;;24.31;42.68
40940;BME280;26666;50.156;7.700;2022-08-21T17:44:08;100207.09;;;24.35;42.49
40940;BME280;26666;50.156;7.700;2022-08-21T17:49:13;100209.56;;;24.18;42.61
40940;BME280;26666;50.156;7.700;2022-08-21T17:54:15;100214.38;;;23.97;43.20
40940;BME280;26666;50.156;7.700;2022-08-21T17:59:16;100217.78;;;23.86;42.71
40940;BME280;26666;50.156;7.700;2022-08-21T18:04:18;100224.06;;;23.80;42.75
40940;BME280;26666;50.156;7.700;2022-08-21T18:09:20;100224.59;;;23.63;43.66
40940;BME280;26666;50.156;7.700;2022-08-21T18:14:26;100233.44;;;23.46;43.94
40940;BME280;26666;50.156;7.700;2022-08-21T18:19:28;100230.63;;;23.34;44.14
40940;BME280;26666;50.156;7.700;2022-08-21T18:24:30;100238.00;;;23.13;44.72
40940;BME280;26666;50.156;7.700;2022-08-21T18:29:32;100246.16;;;23.07;44.71
40940;BME280;26666;50.156;7.700;2022-08-21T18:34:47;100258.44;;;22.89;44.62
40940;BME280;26666;50.156;7.700;2022-08-21T18:39:50;100265.09;;;22.80;45.55
40940;BME280;26666;50.156;7.700;2022-08-21T18:44:56;100269.69;;;22.73;45.88
40940;BME280;26666;50.156;7.700;2022-08-21T18:49:59;100280.28;;;22.68;46.53
40940;BME280;26666;50.156;7.700;2022-08-21T18:55:01;100282.25;;;22.92;46.17
40940;BME280;26666;50.156;7.700;2022-08-21T19:00:17;100295.06;;;22.97;46.35
40940;BME280;26666;50.156;7.700;2022-08-21T19:05:21;100303.81;;;22.92;46.31
40940;BME280;26666;50.156;7.700;2022-08-21T19:10:23;100305.09;;;22.83;46.74
40940;BME280;26666;50.156;7.700;2022-08-21T19:15:47;100309.41;;;22.84;47.63
40940;BME280;26666;50.156;7.700;2022-08-21T19:20:51;100317.97;;;22.68;48.65
40940;BME280;26666;50.156;7.700;2022-08-21T19:25:53;100322.09;;;22.70;49.16
40940;BME280;26666;50.156;7.700;2022-08-21T19:31:08;100325.84;;;22.69;49.60
40940;BME280;26666;50.156;7.700;2022-08-21T19:36:11;100329.59;;;22.61;50.08
40940;BME280;26666;50.156;7.700;2022-08-21T19:41:15;100332.53;;;22.53;50.18
40940;BME280;26666;50.156;7.700;2022-08-21T19:46:29;100342.03;;;22.49;50.73
40940;BME280;26666;50.156;7.700;2022-08-21T19:51:35;100342.09;;;22.36;50.94
40940;BME280;26666;50.156;7.700;2022-08-21T19:56:37;100345.81;;;22.28;51.55
40940;BME280;26666;50.156;7.700;2022-08-21T20:01:38;100342.28;;;22.28;51.87
40940;BME280;26666;50.156;7.700;2022-08-21T20:06:40;100343.69;;;22.23;51.59
40940;BME280;26666;50.156;7.700;2022-08-21T20:11:47;100340.19;;;22.23;51.29
40940;BME280;26666;50.156;7.700;2022-08-21T20:16:49;100347.63;;;22.21;51.73
40940;BME280;26666;50.156;7.700;2022-08-21T20:21:53;100354.88;;;22.07;51.79
40940;BME280;26666;50.156;7.700;2022-08-21T20:26:55;100347.66;;;22.01;52.06
40940;BME280;26666;50.156;7.700;2022-08-21T20:31:58;100356.94;;;21.85;52.62
40940;BME280;26666;50.156;7.700;2022-08-21T20:36:59;100353.41;;;21.71;52.91
40940;BME280;26666;50.156;7.700;2022-08-21T20:42:03;100355.84;;;21.53;52.93
40940;BME280;26666;50.156;7.700;2022-08-21T20:47:07;100363.41;;;21.36;53.07
40940;BME280;26666;50.156;7.700;2022-08-21T20:52:10;100358.22;;;21.27;53.21
40940;BME280;26666;50.156;7.700;2022-08-21T21:08:15;100371.97;;;20.98;54.22
40940;BME280;26666;50.156;7.700;2022-08-21T21:12:50;100376.44;;;20.84;54.35
40940;BME280;26666;50.156;7.700;2022-08-21T21:18:06;100380.75;;;20.85;54.39
40940;BME280;26666;50.156;7.700;2022-08-21T21:23:23;100383.81;;;20.75;54.56
40940;BME280;26666;50.156;7.700;2022-08-21T21:28:38;100388.38;;;20.81;54.41
40940;BME280;26666;50.156;7.700;2022-08-21T21:33:45;100397.50;;;20.87;54.15
40940;BME280;26666;50.156;7.700;2022-08-21T21:38:54;100399.88;;;20.68;55.05
40940;BME280;26666;50.156;7.700;2022-08-21T21:44:13;100394.38;;;20.55;55.22
40940;BME280;26666;50.156;7.700;2022-08-21T22:05:15;100392.66;;;20.19;56.45
40940;BME280;26666;50.156;7.700;2022-08-21T22:10:30;100388.31;;;20.18;56.68
40940;BME280;26666;50.156;7.700;2022-08-21T22:15:43;100389.63;;;20.29;56.35
40940;BME280;26666;50.156;7.700;2022-08-21T22:20:58;100391.50;;;20.07;56.88
40940;BME280;26666;50.156;7.700;2022-08-21T22:26:05;100398.66;;;20.00;57.65
40940;BME280;26666;50.156;7.700;2022-08-21T22:36:19;100396.88;;;20.07;57.61
40940;BME280;26666;50.156;7.700;2022-08-21T22:41:30;100389.75;;;19.93;57.94
40940;BME280;26666;50.156;7.700;2022-08-21T22:56:42;100387.81;;;19.86;58.78
40940;BME280;26666;50.156;7.700;2022-08-21T23:01:45;100387.56;;;19.81;58.88
40940;BME280;26666;50.156;7.700;2022-08-21T23:06:57;100379.84;;;19.57;59.22
40940;BME280;26666;50.156;7.700;2022-08-21T23:12:23;100380.16;;;19.47;59.99
40940;BME280;26666;50.156;7.700;2022-08-21T23:18:01;100384.19;;;19.58;59.88
40940;BME280;26666;50.156;7.700;2022-08-21T23:23:22;100390.97;;;19.54;60.16
40940;BME280;26666;50.156;7.700;2022-08-21T23:34:11;100396.88;;;19.49;59.99
40940;BME280;26666;50.156;7.700;2022-08-21T23:44:43;100387.78;;;19.28;60.64
40940;BME280;26666;50.156;7.700;2022-08-21T23:49:48;100398.56;;;19.20;61.60
40940;BME280;26666;50.156;7.700;2022-08-21T23:55:32;100391.28;;;19.29;61.36
